This is the latest recevied weather packets stored in our database for station/object VK4ZPK-13. If no packets are shown the sender has not sent any weather packets the latest 10 day(s).
| Time | Temp. | Humidity | Pressure | Rain* | Wind** | Luminosity | Snow |
|---|---|---|---|---|---|---|---|
| 1788492680 | 25° C | 75% | 1016.2 hPa | 0 mm | - | - | - |
| 1788490880 | 25.56° C | 76% | 1016.7 hPa | 0 mm | - | - | - |
| 1788489080 | 25.56° C | 76% | 1017.3 hPa | 0 mm | - | - | - |
| 1788487280 | 25.56° C | 77% | 1017.7 hPa | 0 mm | - | - | - |
| 1788485480 | 25.56° C | 78% | 1018.3 hPa | 0 mm | - | - | - |
| 1788483680 | 25.56° C | 77% | 1018.8 hPa | 0 mm | - | - | - |
| 1788480080 | 24.44° C | 81% | 1019.4 hPa | 0 mm | - | - | - |
| 1788478280 | 23.89° C | 83% | 1019.7 hPa | 0 mm | - | - | - |
| 1788472880 | 22.78° C | 90% | 1019.4 hPa | 0 mm | - | - | - |
| 1788471080 | 21.67° C | 94% | 1019.1 hPa | 0 mm | - | - | - |
| 1788469280 | 20° C | 96% | 1018.6 hPa | 0 mm | - | - | - |
| 1788465679 | 18.89° C | 94% | 1018.1 hPa | 0 mm | - | - | - |
| 1788449480 | 19.44° C | 93% | 1017.1 hPa | 0 mm | - | - | - |
| 1788447680 | 19.44° C | 92% | 1017.5 hPa | 0 mm | - | - | - |
| 1788444080 | 20° C | 92% | 1017.6 hPa | 0 mm | - | - | - |
| 1788442280 | 20° C | 91% | 1017.8 hPa | 0 mm | - | - | - |
| 1788440480 | 20° C | 91% | 1018 hPa | 0 mm | - | - | - |
| 1788436880 | 20° C | 91% | 1018 hPa | 0 mm | - | - | - |
| 1788435080 | 20° C | 90% | 1018 hPa | 0 mm | - | - | - |
| 1788433280 | 20° C | 90% | 1017.9 hPa | 0 mm | - | - | - |
| 1788431480 | 20° C | 89% | 1017.7 hPa | 0 mm | - | - | - |
| 1788429680 | 20.56° C | 88% | 1017.4 hPa | 0 mm | - | - | - |
| 1788427880 | 20.56° C | 88% | 1017.3 hPa | 0 mm | - | - | - |
| 1788424280 | 20.56° C | 85% | 1016.8 hPa | 0 mm | - | - | - |
| 1788422480 | 21.11° C | 83% | 1016.8 hPa | 0 mm | - | - | - |
* Rain latest hour (hover to see other rain measurements)
** Current wind speed in m/s (hover to see current wind gust speed)